sensor_id;sensor_type;location;lat;lon;timestamp;temperature;humidity
12329;DHT22;6230;52.390;10.256;2022-07-29T00:00:07;22.20;40.00
12329;DHT22;6230;52.390;10.256;2022-07-29T00:02:33;22.20;40.10
12329;DHT22;6230;52.390;10.256;2022-07-29T00:04:59;22.20;40.10
12329;DHT22;6230;52.390;10.256;2022-07-29T00:07:25;22.20;40.20
12329;DHT22;6230;52.390;10.256;2022-07-29T00:09:50;22.10;40.20
12329;DHT22;6230;52.390;10.256;2022-07-29T00:12:16;22.10;40.20
12329;DHT22;6230;52.390;10.256;2022-07-29T00:14:42;22.10;40.30
12329;DHT22;6230;52.390;10.256;2022-07-29T00:17:08;22.10;40.40
12329;DHT22;6230;52.390;10.256;2022-07-29T00:19:34;22.00;40.40
12329;DHT22;6230;52.390;10.256;2022-07-29T00:22:00;22.00;40.50
12329;DHT22;6230;52.390;10.256;2022-07-29T00:24:26;22.00;40.60
12329;DHT22;6230;52.390;10.256;2022-07-29T00:26:52;22.00;40.60
12329;DHT22;6230;52.390;10.256;2022-07-29T00:29:17;21.90;40.60
12329;DHT22;6230;52.390;10.256;2022-07-29T00:31:43;21.90;40.70
12329;DHT22;6230;52.390;10.256;2022-07-29T00:34:09;21.90;40.70
12329;DHT22;6230;52.390;10.256;2022-07-29T00:36:54;21.90;40.80
12329;DHT22;6230;52.390;10.256;2022-07-29T00:39:20;21.90;40.90
12329;DHT22;6230;52.390;10.256;2022-07-29T00:41:45;21.90;41.00
12329;DHT22;6230;52.390;10.256;2022-07-29T00:44:11;21.90;41.00
12329;DHT22;6230;52.390;10.256;2022-07-29T00:46:37;21.80;41.00
12329;DHT22;6230;52.390;10.256;2022-07-29T00:49:02;21.80;41.10
12329;DHT22;6230;52.390;10.256;2022-07-29T00:51:28;21.90;41.20
12329;DHT22;6230;52.390;10.256;2022-07-29T00:53:54;21.80;41.30
12329;DHT22;6230;52.390;10.256;2022-07-29T00:56:20;21.80;41.30
12329;DHT22;6230;52.390;10.256;2022-07-29T00:58:47;21.80;41.40
12329;DHT22;6230;52.390;10.256;2022-07-29T01:01:13;21.80;41.60
12329;DHT22;6230;52.390;10.256;2022-07-29T01:03:39;21.80;41.60
12329;DHT22;6230;52.390;10.256;2022-07-29T01:06:04;21.80;41.60
12329;DHT22;6230;52.390;10.256;2022-07-29T01:08:31;21.90;41.60
12329;DHT22;6230;52.390;10.256;2022-07-29T01:10:58;21.90;41.60
12329;DHT22;6230;52.390;10.256;2022-07-29T01:13:25;21.90;41.50
12329;DHT22;6230;52.390;10.256;2022-07-29T01:15:56;21.80;41.60
12329;DHT22;6230;52.390;10.256;2022-07-29T01:18:30;21.80;41.60
12329;DHT22;6230;52.390;10.256;2022-07-29T01:27:13;21.70;41.70
12329;DHT22;6230;52.390;10.256;2022-07-29T01:29:45;21.70;41.80
12329;DHT22;6230;52.390;10.256;2022-07-29T01:32:18;21.60;41.80
12329;DHT22;6230;52.390;10.256;2022-07-29T01:34:52;21.60;41.80
12329;DHT22;6230;52.390;10.256;2022-07-29T01:39:47;21.50;42.10
12329;DHT22;6230;52.390;10.256;2022-07-29T01:42:36;21.50;42.10
12329;DHT22;6230;52.390;10.256;2022-07-29T01:45:12;21.50;42.40
12329;DHT22;6230;52.390;10.256;2022-07-29T01:50:38;21.40;43.20
12329;DHT22;6230;52.390;10.256;2022-07-29T01:53:08;21.40;42.50
12329;DHT22;6230;52.390;10.256;2022-07-29T01:55:42;21.30;42.60
12329;DHT22;6230;52.390;10.256;2022-07-29T01:58:10;21.30;42.70
12329;DHT22;6230;52.390;10.256;2022-07-29T02:00:37;21.30;42.80
12329;DHT22;6230;52.390;10.256;2022-07-29T02:03:09;21.20;42.80
12329;DHT22;6230;52.390;10.256;2022-07-29T02:05:35;21.30;42.90
12329;DHT22;6230;52.390;10.256;2022-07-29T02:08:03;21.30;43.00
12329;DHT22;6230;52.390;10.256;2022-07-29T02:10:34;21.30;42.90
12329;DHT22;6230;52.390;10.256;2022-07-29T02:13:02;21.20;42.90
12329;DHT22;6230;52.390;10.256;2022-07-29T02:15:30;21.20;43.00
12329;DHT22;6230;52.390;10.256;2022-07-29T02:18:11;21.20;43.10
12329;DHT22;6230;52.390;10.256;2022-07-29T02:20:39;21.20;43.20
12329;DHT22;6230;52.390;10.256;2022-07-29T02:23:07;21.10;43.20
12329;DHT22;6230;52.390;10.256;2022-07-29T02:25:36;21.10;43.30
12329;DHT22;6230;52.390;10.256;2022-07-29T02:28:02;21.10;43.30
12329;DHT22;6230;52.390;10.256;2022-07-29T02:30:30;21.00;43.40
12329;DHT22;6230;52.390;10.256;2022-07-29T02:32:56;21.00;43.60
12329;DHT22;6230;52.390;10.256;2022-07-29T02:35:23;20.90;43.70
12329;DHT22;6230;52.390;10.256;2022-07-29T02:37:49;21.00;43.80
12329;DHT22;6230;52.390;10.256;2022-07-29T02:40:38;20.90;43.90
12329;DHT22;6230;52.390;10.256;2022-07-29T02:43:05;20.90;43.90
12329;DHT22;6230;52.390;10.256;2022-07-29T02:45:32;20.90;44.00
12329;DHT22;6230;52.390;10.256;2022-07-29T02:48:00;20.90;44.00
12329;DHT22;6230;52.390;10.256;2022-07-29T02:50:38;20.90;44.10
12329;DHT22;6230;52.390;10.256;2022-07-29T02:53:25;20.90;44.20
12329;DHT22;6230;52.390;10.256;2022-07-29T02:55:56;20.80;44.30
12329;DHT22;6230;52.390;10.256;2022-07-29T02:58:33;20.80;44.20
12329;DHT22;6230;52.390;10.256;2022-07-29T03:01:07;20.80;44.30
12329;DHT22;6230;52.390;10.256;2022-07-29T03:03:38;20.80;44.50
12329;DHT22;6230;52.390;10.256;2022-07-29T03:06:05;20.70;44.40
12329;DHT22;6230;52.390;10.256;2022-07-29T03:08:32;20.70;44.60
12329;DHT22;6230;52.390;10.256;2022-07-29T03:11:00;20.70;44.60
12329;DHT22;6230;52.390;10.256;2022-07-29T03:13:29;20.70;44.70
12329;DHT22;6230;52.390;10.256;2022-07-29T03:15:57;20.70;44.80
12329;DHT22;6230;52.390;10.256;2022-07-29T03:18:23;20.60;45.00
12329;DHT22;6230;52.390;10.256;2022-07-29T03:20:49;20.60;45.00
12329;DHT22;6230;52.390;10.256;2022-07-29T03:23:22;20.50;45.10
12329;DHT22;6230;52.390;10.256;2022-07-29T03:25:52;20.50;45.20
12329;DHT22;6230;52.390;10.256;2022-07-29T03:28:18;20.50;45.30
12329;DHT22;6230;52.390;10.256;2022-07-29T03:30:44;20.50;45.40
12329;DHT22;6230;52.390;10.256;2022-07-29T03:33:10;20.50;45.40
12329;DHT22;6230;52.390;10.256;2022-07-29T03:35:35;20.40;45.50
12329;DHT22;6230;52.390;10.256;2022-07-29T03:38:01;20.40;45.60
12329;DHT22;6230;52.390;10.256;2022-07-29T03:40:42;20.40;45.60
12329;DHT22;6230;52.390;10.256;2022-07-29T03:43:11;20.40;45.90
12329;DHT22;6230;52.390;10.256;2022-07-29T03:45:39;20.40;45.80
12329;DHT22;6230;52.390;10.256;2022-07-29T03:48:10;20.40;45.80
12329;DHT22;6230;52.390;10.256;2022-07-29T03:50:37;20.40;45.90
12329;DHT22;6230;52.390;10.256;2022-07-29T03:53:04;20.40;45.90
12329;DHT22;6230;52.390;10.256;2022-07-29T03:55:33;20.40;45.90
12329;DHT22;6230;52.390;10.256;2022-07-29T03:58:02;20.40;46.10
12329;DHT22;6230;52.390;10.256;2022-07-29T04:00:28;20.30;46.10
12329;DHT22;6230;52.390;10.256;2022-07-29T04:02:55;20.30;46.20
12329;DHT22;6230;52.390;10.256;2022-07-29T04:05:21;20.30;46.30
12329;DHT22;6230;52.390;10.256;2022-07-29T04:07:48;20.40;46.40
12329;DHT22;6230;52.390;10.256;2022-07-29T04:10:14;20.30;46.40
12329;DHT22;6230;52.390;10.256;2022-07-29T04:12:41;20.20;46.50
12329;DHT22;6230;52.390;10.256;2022-07-29T04:15:07;20.20;46.60
12329;DHT22;6230;52.390;10.256;2022-07-29T04:17:33;20.20;46.70
12329;DHT22;6230;52.390;10.256;2022-07-29T04:19:58;20.20;46.80
12329;DHT22;6230;52.390;10.256;2022-07-29T04:22:24;20.10;46.90
12329;DHT22;6230;52.390;10.256;2022-07-29T04:24:50;20.10;47.00
12329;DHT22;6230;52.390;10.256;2022-07-29T04:27:15;20.10;47.10
12329;DHT22;6230;52.390;10.256;2022-07-29T04:29:41;20.10;47.30
12329;DHT22;6230;52.390;10.256;2022-07-29T04:32:07;20.10;47.30
12329;DHT22;6230;52.390;10.256;2022-07-29T04:34:32;20.20;47.30
12329;DHT22;6230;52.390;10.256;2022-07-29T04:36:58;20.20;47.40
12329;DHT22;6230;52.390;10.256;2022-07-29T04:39:24;20.20;47.40
12329;DHT22;6230;52.390;10.256;2022-07-29T04:41:50;20.20;47.50
12329;DHT22;6230;52.390;10.256;2022-07-29T04:44:16;20.20;47.50
12329;DHT22;6230;52.390;10.256;2022-07-29T04:46:41;20.20;47.60
12329;DHT22;6230;52.390;10.256;2022-07-29T04:49:07;20.10;47.70
12329;DHT22;6230;52.390;10.256;2022-07-29T04:51:34;20.10;47.70
12329;DHT22;6230;52.390;10.256;2022-07-29T04:54:00;20.10;47.80
12329;DHT22;6230;52.390;10.256;2022-07-29T04:56:26;20.10;47.90
12329;DHT22;6230;52.390;10.256;2022-07-29T04:58:53;20.20;48.00
12329;DHT22;6230;52.390;10.256;2022-07-29T05:01:19;20.10;48.00
12329;DHT22;6230;52.390;10.256;2022-07-29T05:03:45;20.10;48.10
12329;DHT22;6230;52.390;10.256;2022-07-29T05:06:11;20.10;48.10
12329;DHT22;6230;52.390;10.256;2022-07-29T05:08:37;20.10;48.20
12329;DHT22;6230;52.390;10.256;2022-07-29T05:11:03;20.10;48.20
12329;DHT22;6230;52.390;10.256;2022-07-29T05:13:29;20.20;48.30
12329;DHT22;6230;52.390;10.256;2022-07-29T05:15:55;20.20;48.40
12329;DHT22;6230;52.390;10.256;2022-07-29T05:18:21;20.20;48.50
12329;DHT22;6230;52.390;10.256;2022-07-29T05:20:46;20.20;48.50
12329;DHT22;6230;52.390;10.256;2022-07-29T05:23:12;20.20;48.60
12329;DHT22;6230;52.390;10.256;2022-07-29T05:25:41;20.30;48.60
12329;DHT22;6230;52.390;10.256;2022-07-29T05:28:06;20.30;48.60
12329;DHT22;6230;52.390;10.256;2022-07-29T05:30:32;20.30;48.60
12329;DHT22;6230;52.390;10.256;2022-07-29T05:32:58;20.30;48.70
12329;DHT22;6230;52.390;10.256;2022-07-29T05:35:23;20.30;48.80
12329;DHT22;6230;52.390;10.256;2022-07-29T05:37:49;20.30;48.80
12329;DHT22;6230;52.390;10.256;2022-07-29T05:40:15;20.30;48.80
12329;DHT22;6230;52.390;10.256;2022-07-29T05:42:41;20.30;48.80
12329;DHT22;6230;52.390;10.256;2022-07-29T05:45:07;20.40;49.00
12329;DHT22;6230;52.390;10.256;2022-07-29T05:47:33;20.40;48.90
12329;DHT22;6230;52.390;10.256;2022-07-29T05:49:59;20.40;48.90
12329;DHT22;6230;52.390;10.256;2022-07-29T05:52:25;20.50;48.90
12329;DHT22;6230;52.390;10.256;2022-07-29T05:54:50;20.50;48.90
12329;DHT22;6230;52.390;10.256;2022-07-29T05:57:21;20.50;49.00
12329;DHT22;6230;52.390;10.256;2022-07-29T05:59:47;20.50;49.00
12329;DHT22;6230;52.390;10.256;2022-07-29T06:02:14;20.50;49.00
12329;DHT22;6230;52.390;10.256;2022-07-29T06:04:40;20.60;49.10
12329;DHT22;6230;52.390;10.256;2022-07-29T06:07:05;20.60;48.90
12329;DHT22;6230;52.390;10.256;2022-07-29T06:09:32;20.70;48.90
12329;DHT22;6230;52.390;10.256;2022-07-29T06:12:00;20.70;49.00
12329;DHT22;6230;52.390;10.256;2022-07-29T06:14:26;20.70;49.00
12329;DHT22;6230;52.390;10.256;2022-07-29T06:16:53;20.70;49.00
12329;DHT22;6230;52.390;10.256;2022-07-29T06:19:19;20.70;49.10
12329;DHT22;6230;52.390;10.256;2022-07-29T06:21:45;20.70;49.00
12329;DHT22;6230;52.390;10.256;2022-07-29T06:24:12;20.80;49.20
12329;DHT22;6230;52.390;10.256;2022-07-29T06:26:39;20.80;49.50
12329;DHT22;6230;52.390;10.256;2022-07-29T06:29:05;20.80;49.20
12329;DHT22;6230;52.390;10.256;2022-07-29T06:31:31;20.80;49.20
12329;DHT22;6230;52.390;10.256;2022-07-29T06:33:56;20.80;49.20
12329;DHT22;6230;52.390;10.256;2022-07-29T06:36:22;20.90;49.30
12329;DHT22;6230;52.390;10.256;2022-07-29T06:38:47;20.90;49.30
12329;DHT22;6230;52.390;10.256;2022-07-29T06:41:13;21.00;49.20
12329;DHT22;6230;52.390;10.256;2022-07-29T06:43:42;21.00;49.20
12329;DHT22;6230;52.390;10.256;2022-07-29T06:46:11;21.00;49.20
12329;DHT22;6230;52.390;10.256;2022-07-29T06:48:38;21.10;49.30
12329;DHT22;6230;52.390;10.256;2022-07-29T06:51:04;21.10;49.30
12329;DHT22;6230;52.390;10.256;2022-07-29T06:53:31;21.10;49.30
12329;DHT22;6230;52.390;10.256;2022-07-29T06:55:58;21.20;49.30
12329;DHT22;6230;52.390;10.256;2022-07-29T06:58:24;21.20;49.30
12329;DHT22;6230;52.390;10.256;2022-07-29T07:00:51;21.30;49.30
12329;DHT22;6230;52.390;10.256;2022-07-29T07:03:17;21.40;49.10
12329;DHT22;6230;52.390;10.256;2022-07-29T07:05:42;21.40;49.10
12329;DHT22;6230;52.390;10.256;2022-07-29T07:08:08;21.40;49.10
12329;DHT22;6230;52.390;10.256;2022-07-29T07:10:34;21.40;49.00
12329;DHT22;6230;52.390;10.256;2022-07-29T07:13:00;21.50;49.00
12329;DHT22;6230;52.390;10.256;2022-07-29T07:15:27;21.60;48.90
12329;DHT22;6230;52.390;10.256;2022-07-29T07:17:53;21.60;48.80
12329;DHT22;6230;52.390;10.256;2022-07-29T07:20:19;21.70;48.80
12329;DHT22;6230;52.390;10.256;2022-07-29T07:22:45;21.80;48.70
12329;DHT22;6230;52.390;10.256;2022-07-29T07:25:11;21.90;48.70
12329;DHT22;6230;52.390;10.256;2022-07-29T07:27:38;22.00;48.60
12329;DHT22;6230;52.390;10.256;2022-07-29T07:30:05;22.10;48.50
12329;DHT22;6230;52.390;10.256;2022-07-29T07:32:32;22.10;48.30
12329;DHT22;6230;52.390;10.256;2022-07-29T07:34:58;22.20;48.20
12329;DHT22;6230;52.390;10.256;2022-07-29T07:37:24;22.30;48.20
12329;DHT22;6230;52.390;10.256;2022-07-29T07:39:51;22.40;48.20
12329;DHT22;6230;52.390;10.256;2022-07-29T07:42:17;22.50;48.10
12329;DHT22;6230;52.390;10.256;2022-07-29T07:44:42;22.60;47.90
12329;DHT22;6230;52.390;10.256;2022-07-29T07:47:08;22.70;47.60
12329;DHT22;6230;52.390;10.256;2022-07-29T07:49:34;22.80;47.50
12329;DHT22;6230;52.390;10.256;2022-07-29T07:51:59;22.90;47.40
12329;DHT22;6230;52.390;10.256;2022-07-29T07:54:25;23.00;47.20
12329;DHT22;6230;52.390;10.256;2022-07-29T07:56:51;23.00;47.00
12329;DHT22;6230;52.390;10.256;2022-07-29T07:59:16;23.10;46.80
12329;DHT22;6230;52.390;10.256;2022-07-29T08:01:42;23.20;46.80
12329;DHT22;6230;52.390;10.256;2022-07-29T08:04:08;23.20;46.70
12329;DHT22;6230;52.390;10.256;2022-07-29T08:06:34;23.20;46.60
12329;DHT22;6230;52.390;10.256;2022-07-29T08:09:02;23.20;46.50
12329;DHT22;6230;52.390;10.256;2022-07-29T08:11:27;23.30;46.50
12329;DHT22;6230;52.390;10.256;2022-07-29T08:13:54;23.30;46.30
12329;DHT22;6230;52.390;10.256;2022-07-29T08:16:19;23.30;46.80
12329;DHT22;6230;52.390;10.256;2022-07-29T08:18:46;23.40;46.20
12329;DHT22;6230;52.390;10.256;2022-07-29T08:21:13;23.40;46.10
12329;DHT22;6230;52.390;10.256;2022-07-29T08:23:39;23.40;46.00
12329;DHT22;6230;52.390;10.256;2022-07-29T08:26:11;23.50;46.50
12329;DHT22;6230;52.390;10.256;2022-07-29T08:28:38;23.60;46.00
12329;DHT22;6230;52.390;10.256;2022-07-29T08:31:04;23.70;45.90
12329;DHT22;6230;52.390;10.256;2022-07-29T08:33:30;23.80;45.70
12329;DHT22;6230;52.390;10.256;2022-07-29T08:35:56;23.90;45.70
12329;DHT22;6230;52.390;10.256;2022-07-29T08:38:22;24.00;45.60
12329;DHT22;6230;52.390;10.256;2022-07-29T08:40:47;24.10;45.30
12329;DHT22;6230;52.390;10.256;2022-07-29T08:43:13;24.20;45.30
12329;DHT22;6230;52.390;10.256;2022-07-29T08:45:43;24.30;45.20
12329;DHT22;6230;52.390;10.256;2022-07-29T08:48:21;24.40;45.00
12329;DHT22;6230;52.390;10.256;2022-07-29T08:50:50;24.50;44.90
12329;DHT22;6230;52.390;10.256;2022-07-29T08:53:17;24.60;44.80
12329;DHT22;6230;52.390;10.256;2022-07-29T08:55:48;24.70;44.70
12329;DHT22;6230;52.390;10.256;2022-07-29T08:58:15;24.70;44.50
12329;DHT22;6230;52.390;10.256;2022-07-29T09:00:47;24.90;44.40
12329;DHT22;6230;52.390;10.256;2022-07-29T09:03:18;25.00;44.00
12329;DHT22;6230;52.390;10.256;2022-07-29T09:05:50;25.10;43.90
12329;DHT22;6230;52.390;10.256;2022-07-29T09:08:16;25.20;43.50
12329;DHT22;6230;52.390;10.256;2022-07-29T09:10:43;25.20;43.40
12329;DHT22;6230;52.390;10.256;2022-07-29T09:13:09;25.30;43.20
12329;DHT22;6230;52.390;10.256;2022-07-29T09:15:35;25.40;42.90
12329;DHT22;6230;52.390;10.256;2022-07-29T09:18:00;25.30;42.50
12329;DHT22;6230;52.390;10.256;2022-07-29T09:20:28;25.40;42.50
12329;DHT22;6230;52.390;10.256;2022-07-29T09:23:13;25.50;42.50
12329;DHT22;6230;52.390;10.256;2022-07-29T09:25:40;25.50;42.60
12329;DHT22;6230;52.390;10.256;2022-07-29T09:28:27;25.60;42.40
12329;DHT22;6230;52.390;10.256;2022-07-29T09:30:57;25.80;42.10
12329;DHT22;6230;52.390;10.256;2022-07-29T09:33:33;26.00;42.60
12329;DHT22;6230;52.390;10.256;2022-07-29T09:36:06;26.30;41.60
12329;DHT22;6230;52.390;10.256;2022-07-29T09:38:33;26.60;41.50
12329;DHT22;6230;52.390;10.256;2022-07-29T09:41:04;26.90;40.80
12329;DHT22;6230;52.390;10.256;2022-07-29T09:43:30;27.00;40.30
12329;DHT22;6230;52.390;10.256;2022-07-29T09:46:10;27.20;40.20
12329;DHT22;6230;52.390;10.256;2022-07-29T09:48:35;27.40;39.70
12329;DHT22;6230;52.390;10.256;2022-07-29T09:51:04;27.60;39.60
12329;DHT22;6230;52.390;10.256;2022-07-29T09:53:32;27.70;39.40
12329;DHT22;6230;52.390;10.256;2022-07-29T09:56:07;27.80;39.40
12329;DHT22;6230;52.390;10.256;2022-07-29T09:58:33;27.80;39.00
12329;DHT22;6230;52.390;10.256;2022-07-29T10:01:00;27.90;39.10
12329;DHT22;6230;52.390;10.256;2022-07-29T10:03:29;28.00;39.00
12329;DHT22;6230;52.390;10.256;2022-07-29T10:06:10;28.00;38.80
12329;DHT22;6230;52.390;10.256;2022-07-29T10:08:41;28.10;38.40
12329;DHT22;6230;52.390;10.256;2022-07-29T10:11:15;28.10;38.50
12329;DHT22;6230;52.390;10.256;2022-07-29T10:13:43;28.20;38.40
12329;DHT22;6230;52.390;10.256;2022-07-29T10:16:10;28.20;38.50
12329;DHT22;6230;52.390;10.256;2022-07-29T10:18:38;28.50;38.50
12329;DHT22;6230;52.390;10.256;2022-07-29T10:21:04;28.70;38.00
12329;DHT22;6230;52.390;10.256;2022-07-29T10:23:31;28.90;37.50
12329;DHT22;6230;52.390;10.256;2022-07-29T10:25:57;29.00;37.10
12329;DHT22;6230;52.390;10.256;2022-07-29T10:28:23;29.00;36.80
12329;DHT22;6230;52.390;10.256;2022-07-29T10:30:51;29.10;36.70
12329;DHT22;6230;52.390;10.256;2022-07-29T10:36:40;29.30;36.00
12329;DHT22;6230;52.390;10.256;2022-07-29T10:44:43;29.50;35.60
12329;DHT22;6230;52.390;10.256;2022-07-29T10:47:26;29.40;35.80
12329;DHT22;6230;52.390;10.256;2022-07-29T10:50:02;29.40;35.40
12329;DHT22;6230;52.390;10.256;2022-07-29T10:53:06;29.30;35.50
12329;DHT22;6230;52.390;10.256;2022-07-29T10:55:36;29.30;35.70
12329;DHT22;6230;52.390;10.256;2022-07-29T10:58:15;29.20;35.70
12329;DHT22;6230;52.390;10.256;2022-07-29T11:00:41;29.20;35.10
12329;DHT22;6230;52.390;10.256;2022-07-29T11:03:06;29.00;35.20
12329;DHT22;6230;52.390;10.256;2022-07-29T11:05:52;29.00;35.40
12329;DHT22;6230;52.390;10.256;2022-07-29T11:08:20;29.00;35.20
12329;DHT22;6230;52.390;10.256;2022-07-29T11:10:49;29.00;35.40
12329;DHT22;6230;52.390;10.256;2022-07-29T11:13:52;28.90;35.40
12329;DHT22;6230;52.390;10.256;2022-07-29T11:16:21;29.00;35.00
12329;DHT22;6230;52.390;10.256;2022-07-29T11:21:40;28.90;34.80
12329;DHT22;6230;52.390;10.256;2022-07-29T11:26:43;28.80;34.80
12329;DHT22;6230;52.390;10.256;2022-07-29T11:29:19;28.70;35.00
12329;DHT22;6230;52.390;10.256;2022-07-29T11:31:47;28.70;35.00
12329;DHT22;6230;52.390;10.256;2022-07-29T11:34:29;28.60;35.30
12329;DHT22;6230;52.390;10.256;2022-07-29T11:47:25;28.60;35.50
12329;DHT22;6230;52.390;10.256;2022-07-29T11:49:53;28.60;35.60
12329;DHT22;6230;52.390;10.256;2022-07-29T11:52:21;28.60;35.70
12329;DHT22;6230;52.390;10.256;2022-07-29T11:54:48;28.60;35.60
12329;DHT22;6230;52.390;10.256;2022-07-29T11:57:16;28.60;35.70
12329;DHT22;6230;52.390;10.256;2022-07-29T11:59:44;28.50;35.70
12329;DHT22;6230;52.390;10.256;2022-07-29T12:02:10;28.50;35.70
12329;DHT22;6230;52.390;10.256;2022-07-29T12:04:54;28.60;35.90
12329;DHT22;6230;52.390;10.256;2022-07-29T12:07:31;28.60;35.90
12329;DHT22;6230;52.390;10.256;2022-07-29T12:10:00;28.70;36.00
12329;DHT22;6230;52.390;10.256;2022-07-29T12:12:26;28.70;35.80
12329;DHT22;6230;52.390;10.256;2022-07-29T12:14:52;28.70;35.80
12329;DHT22;6230;52.390;10.256;2022-07-29T12:19:55;28.90;35.60
12329;DHT22;6230;52.390;10.256;2022-07-29T12:22:47;29.00;35.60
12329;DHT22;6230;52.390;10.256;2022-07-29T12:25:14;29.20;35.20
12329;DHT22;6230;52.390;10.256;2022-07-29T12:27:43;29.20;35.20
12329;DHT22;6230;52.390;10.256;2022-07-29T12:30:12;29.30;35.10
12329;DHT22;6230;52.390;10.256;2022-07-29T12:32:43;29.30;35.00
12329;DHT22;6230;52.390;10.256;2022-07-29T12:35:17;29.40;35.60
12329;DHT22;6230;52.390;10.256;2022-07-29T12:37:45;29.40;34.50
12329;DHT22;6230;52.390;10.256;2022-07-29T12:40:15;29.40;34.20
12329;DHT22;6230;52.390;10.256;2022-07-29T12:45:29;29.50;34.00
12329;DHT22;6230;52.390;10.256;2022-07-29T12:47:56;29.50;33.90
12329;DHT22;6230;52.390;10.256;2022-07-29T12:50:22;29.60;34.00
12329;DHT22;6230;52.390;10.256;2022-07-29T12:52:47;29.70;33.80
12329;DHT22;6230;52.390;10.256;2022-07-29T12:55:13;29.80;33.70
12329;DHT22;6230;52.390;10.256;2022-07-29T12:57:47;29.80;33.50
12329;DHT22;6230;52.390;10.256;2022-07-29T13:00:14;29.90;33.30
12329;DHT22;6230;52.390;10.256;2022-07-29T13:02:41;30.00;33.30
12329;DHT22;6230;52.390;10.256;2022-07-29T13:05:09;30.10;33.10
12329;DHT22;6230;52.390;10.256;2022-07-29T13:07:36;30.10;32.70
12329;DHT22;6230;52.390;10.256;2022-07-29T13:10:21;30.20;32.50
12329;DHT22;6230;52.390;10.256;2022-07-29T13:15:28;30.40;31.90
12329;DHT22;6230;52.390;10.256;2022-07-29T13:17:53;30.50;31.70
12329;DHT22;6230;52.390;10.256;2022-07-29T13:20:24;30.60;31.20
12329;DHT22;6230;52.390;10.256;2022-07-29T13:22:50;30.70;30.90
12329;DHT22;6230;52.390;10.256;2022-07-29T13:25:24;30.80;30.90
12329;DHT22;6230;52.390;10.256;2022-07-29T13:27:49;30.90;30.70
12329;DHT22;6230;52.390;10.256;2022-07-29T13:30:15;30.90;30.60
12329;DHT22;6230;52.390;10.256;2022-07-29T13:32:40;30.90;30.20
12329;DHT22;6230;52.390;10.256;2022-07-29T13:35:08;30.90;30.40
12329;DHT22;6230;52.390;10.256;2022-07-29T13:37:35;30.80;30.40
12329;DHT22;6230;52.390;10.256;2022-07-29T13:40:04;30.60;30.00
12329;DHT22;6230;52.390;10.256;2022-07-29T13:42:32;30.60;30.20
12329;DHT22;6230;52.390;10.256;2022-07-29T13:44:58;30.60;30.20
12329;DHT22;6230;52.390;10.256;2022-07-29T13:47:24;30.60;30.30
12329;DHT22;6230;52.390;10.256;2022-07-29T13:49:50;30.60;30.30
12329;DHT22;6230;52.390;10.256;2022-07-29T13:52:16;30.60;30.20
12329;DHT22;6230;52.390;10.256;2022-07-29T13:54:42;30.70;30.30
12329;DHT22;6230;52.390;10.256;2022-07-29T13:57:09;30.90;30.20
12329;DHT22;6230;52.390;10.256;2022-07-29T13:59:36;31.00;29.80
12329;DHT22;6230;52.390;10.256;2022-07-29T14:02:02;31.10;29.80
12329;DHT22;6230;52.390;10.256;2022-07-29T14:04:27;31.20;29.70
12329;DHT22;6230;52.390;10.256;2022-07-29T14:06:53;31.20;29.20
12329;DHT22;6230;52.390;10.256;2022-07-29T14:09:18;31.20;29.20
12329;DHT22;6230;52.390;10.256;2022-07-29T14:11:47;31.30;28.80
12329;DHT22;6230;52.390;10.256;2022-07-29T14:14:15;31.40;28.70
12329;DHT22;6230;52.390;10.256;2022-07-29T14:16:42;31.40;28.50
12329;DHT22;6230;52.390;10.256;2022-07-29T14:19:07;31.40;28.50
12329;DHT22;6230;52.390;10.256;2022-07-29T14:21:33;31.40;28.70
12329;DHT22;6230;52.390;10.256;2022-07-29T14:24:00;31.50;28.50
12329;DHT22;6230;52.390;10.256;2022-07-29T14:26:26;31.50;28.10
12329;DHT22;6230;52.390;10.256;2022-07-29T14:28:54;31.40;28.40
12329;DHT22;6230;52.390;10.256;2022-07-29T14:31:20;31.30;28.50
12329;DHT22;6230;52.390;10.256;2022-07-29T14:33:50;31.20;28.80
12329;DHT22;6230;52.390;10.256;2022-07-29T14:36:16;31.10;28.90
12329;DHT22;6230;52.390;10.256;2022-07-29T14:38:42;31.10;28.90
12329;DHT22;6230;52.390;10.256;2022-07-29T14:41:08;31.00;28.70
12329;DHT22;6230;52.390;10.256;2022-07-29T14:43:34;30.90;28.70
12329;DHT22;6230;52.390;10.256;2022-07-29T14:46:00;30.90;28.90
12329;DHT22;6230;52.390;10.256;2022-07-29T14:48:26;30.90;29.00
12329;DHT22;6230;52.390;10.256;2022-07-29T14:50:57;30.90;28.80
12329;DHT22;6230;52.390;10.256;2022-07-29T14:53:24;30.90;28.80
12329;DHT22;6230;52.390;10.256;2022-07-29T14:55:52;30.80;29.00
12329;DHT22;6230;52.390;10.256;2022-07-29T14:58:18;30.70;28.80
12329;DHT22;6230;52.390;10.256;2022-07-29T15:00:45;30.60;28.80
12329;DHT22;6230;52.390;10.256;2022-07-29T15:03:10;30.50;28.90
12329;DHT22;6230;52.390;10.256;2022-07-29T15:05:36;30.40;29.00
12329;DHT22;6230;52.390;10.256;2022-07-29T15:08:02;30.40;29.10
12329;DHT22;6230;52.390;10.256;2022-07-29T15:10:28;30.20;29.00
12329;DHT22;6230;52.390;10.256;2022-07-29T15:12:54;30.20;29.50
12329;DHT22;6230;52.390;10.256;2022-07-29T15:15:20;30.20;29.00
12329;DHT22;6230;52.390;10.256;2022-07-29T15:17:47;30.10;29.00
12329;DHT22;6230;52.390;10.256;2022-07-29T15:20:12;30.10;29.20
12329;DHT22;6230;52.390;10.256;2022-07-29T15:22:39;30.10;29.30
12329;DHT22;6230;52.390;10.256;2022-07-29T15:25:06;30.10;29.40
12329;DHT22;6230;52.390;10.256;2022-07-29T15:27:32;30.20;29.30
12329;DHT22;6230;52.390;10.256;2022-07-29T15:29:58;30.10;29.30
12329;DHT22;6230;52.390;10.256;2022-07-29T15:32:23;30.20;29.40
12329;DHT22;6230;52.390;10.256;2022-07-29T15:34:49;30.20;29.40
12329;DHT22;6230;52.390;10.256;2022-07-29T15:37:14;30.20;29.40
12329;DHT22;6230;52.390;10.256;2022-07-29T15:39:40;30.20;29.30
12329;DHT22;6230;52.390;10.256;2022-07-29T15:42:06;30.20;29.40
12329;DHT22;6230;52.390;10.256;2022-07-29T15:44:31;30.10;29.30
12329;DHT22;6230;52.390;10.256;2022-07-29T15:46:57;30.10;29.50
12329;DHT22;6230;52.390;10.256;2022-07-29T15:49:30;30.10;29.50
12329;DHT22;6230;52.390;10.256;2022-07-29T15:52:01;30.00;29.60
12329;DHT22;6230;52.390;10.256;2022-07-29T15:54:29;30.00;29.70
12329;DHT22;6230;52.390;10.256;2022-07-29T15:56:55;30.00;29.80
12329;DHT22;6230;52.390;10.256;2022-07-29T15:59:21;30.00;29.80
12329;DHT22;6230;52.390;10.256;2022-07-29T16:01:47;30.00;29.80
12329;DHT22;6230;52.390;10.256;2022-07-29T16:04:16;30.00;29.90
12329;DHT22;6230;52.390;10.256;2022-07-29T16:06:43;30.00;29.90
12329;DHT22;6230;52.390;10.256;2022-07-29T16:09:09;29.90;30.00
12329;DHT22;6230;52.390;10.256;2022-07-29T16:11:35;29.90;30.00
12329;DHT22;6230;52.390;10.256;2022-07-29T16:14:01;29.90;30.00
12329;DHT22;6230;52.390;10.256;2022-07-29T16:16:26;29.90;30.00
12329;DHT22;6230;52.390;10.256;2022-07-29T16:18:52;29.90;30.00